CMA CGM St. Laurent — 2IOA3 — position and weather

sailwx.info

Track history (hours):
 
Tides and Currents Weather Stations Pressure Air Temp Water Temp Dewpoint Dewpoint Depression Visibility Wind Speed Wind Dir Waves Ship Positions

CMA CGM St. Laurent

Last reported at 2017-Sep-09 02:23 UTC. Time now 2017-Sep-23 00:22 UTC.
Position N 16°07' W 061°31'.
Warning: this ship's position is 13 days out of date.

Length 190 m; draft 8.3 m.

Type: Ship. MMSI: 235111365.

Date/timePositionNaut miles runAvg speedWind from/ knotsBaromVisibWave heightAir tempDewpointWater temp
2017-Sep-09 02:23N 16°07' W 061°31'3 8.2
2017-Sep-09 02:01N 16°10' W 061°33'4 7.4
2017-Sep-09 01:30N 16°14' W 061°32'0 0.5
2017-Sep-09 00:59N 16°14' W 061°33'0 0.0
2017-Sep-09 00:29N 16°14' W 061°33'0 0.0
2017-Sep-08 23:59N 16°14' W 061°33'0 0.0
2017-Sep-08 23:29N 16°14' W 061°33'0 0.0
2017-Sep-08 22:59N 16°14' W 061°33'0 0.0
2017-Sep-08 22:29N 16°14' W 061°33'0 0.0
2017-Sep-08 21:59N 16°14' W 061°33'0 0.0
2017-Sep-08 21:29N 16°14' W 061°33'0 0.0
2017-Sep-08 20:59N 16°14' W 061°33'0 0.0
2017-Sep-08 20:29N 16°14' W 061°33'0 0.0
2017-Sep-08 19:59N 16°14' W 061°33'0 0.0
2017-Sep-08 19:29N 16°14' W 061°33'0 0.0
2017-Sep-08 18:59N 16°14' W 061°33'0 0.0
2017-Sep-08 18:29N 16°14' W 061°33'0 0.0
2017-Sep-08 17:59N 16°14' W 061°33'0 0.0
2017-Sep-08 17:30N 16°14' W 061°33'1 1.2
2017-Sep-08 17:00N 16°13' W 061°32'3 6.2
2017-Sep-08 16:30N 16°10' W 061°33'4 8.1
2017-Sep-08 16:01N 16°08' W 061°29'611.2
2017-Sep-08 15:30N 16°06' W 061°24'713.8
2017-Sep-08 15:00N 16°04' W 061°17'914.0
2017-Sep-08 14:23N 16°04' W 061°08'613.9
2017-Sep-08 13:58N 16°04' W 061°02'1214.3
2017-Sep-08 13:09N 16°04' W 060°50'  
2017-Sep-02 20:30N 36°10' W 026°09'918.1
2017-Sep-02 20:00N 36°14' W 025°60'918.1
2017-Sep-02 19:30N 36°18' W 025°50'918.1
2017-Sep-02 19:00N 36°23' W 025°40'918.2
2017-Sep-02 18:30N 36°27' W 025°30'918.2
2017-Sep-02 18:00N 36°32' W 025°20'918.3
2017-Sep-02 17:31N 36°36' W 025°11'918.2
2017-Sep-02 17:00N 36°41' W 025°01'918.2
2017-Sep-02 16:30N 36°46' W 024°51'918.0
2017-Sep-02 16:01N 36°51' W 024°43'918.1
2017-Sep-02 15:30N 36°57' W 024°34'918.5
2017-Sep-02 15:00N 37°03' W 024°25'918.4
2017-Sep-02 14:31N 37°09' W 024°16'917.9
2017-Sep-02 14:00N 37°15' W 024°08'917.9
2017-Sep-02 13:30N 37°21' W 023°59'917.8
2017-Sep-02 13:01N 37°27' W 023°51'917.6
2017-Sep-02 12:30N 37°32' W 023°42'917.5
2017-Sep-02 12:00N 37°38' W 023°34'917.5
2017-Sep-02 11:30N 37°44' W 023°25'1017.5
2017-Sep-02 10:57N 37°50' W 023°16'817.7
2017-Sep-02 10:30N 37°55' W 023°08'917.8
2017-Sep-02 10:00N 38°01' W 022°59'918.0
2017-Sep-02 09:30N 38°06' W 022°51'918.1
2017-Sep-02 09:00N 38°12' W 022°42'917.7
2017-Sep-02 08:30N 38°18' W 022°34'1217.8
2017-Sep-02 07:49N 38°26' W 022°22'617.8
2017-Sep-02 07:30N 38°29' W 022°16'917.8
2017-Sep-02 07:00N 38°35' W 022°08'917.6
2017-Sep-02 06:31N 38°41' W 021°59'1217.6
2017-Sep-02 05:51N 38°49' W 021°48'817.5
2017-Sep-02 05:24N 38°54' W 021°40'1017.6
2017-Sep-02 04:52N 38°60' W 021°31'617.4
2017-Sep-02 04:30N 39°04' W 021°24'817.3
2017-Sep-02 04:00N 39°09' W 021°16'917.5
2017-Sep-02 03:29N 39°15' W 021°07'817.6
2017-Sep-02 03:01N 39°21' W 020°59'2817.7
2017-Sep-02 01:27N 39°38' W 020°31'  
2017-Aug-30 20:06N 49°40' W 003°54'215.1
2017-Aug-30 19:59N 49°41' W 003°51'715.4
2017-Aug-30 19:31N 49°45' W 003°42'815.6
2017-Aug-30 19:01N 49°49' W 003°32'815.7
2017-Aug-30 18:31N 49°53' W 003°21'815.8
2017-Aug-30 18:00N 49°56' W 003°10'815.6
2017-Aug-30 17:31N 49°59' W 002°59'815.6
2017-Aug-30 17:01N 50°01' W 002°47'815.6
2017-Aug-30 16:30N 50°03' W 002°35'1914.8
2017-Aug-30 15:12N 50°04' W 002°05'314.6
2017-Aug-30 15:00N 50°03' W 002°01'714.4
2017-Aug-30 14:30N 50°01' W 001°50'714.0
2017-Aug-30 14:00N 49°57' W 001°41'714.0
2017-Aug-30 13:30N 49°54' W 001°31'713.4
2017-Aug-30 13:01N 49°52' W 001°22'713.1
2017-Aug-30 12:30N 49°49' W 001°12'713.7
2017-Aug-30 12:01N 49°46' W 001°02'714.2
2017-Aug-30 11:31N 49°44' W 000°52'814.9
2017-Aug-30 11:00N 49°41' W 000°41'1215.5
2017-Aug-30 10:13N 49°37' W 000°24'315.3
2017-Aug-30 10:00N 49°35' W 000°19'715.3
2017-Aug-30 09:31N 49°32' W 000°09'611.8
2017-Aug-30 09:00N 49°30' W 000°00'612.2
2017-Aug-30 08:31N 49°28' E 000°08'2 3.0
2017-Aug-30 08:00N 49°27' E 000°10'0 0.0
2017-Aug-30 07:30N 49°27' E 000°10'0 0.0
2017-Aug-30 07:00N 49°27' E 000°10'0 0.0
2017-Aug-30 06:30N 49°27' E 000°10'0 0.0
2017-Aug-30 06:00N 49°27' E 000°10'0 0.0
2017-Aug-30 05:30N 49°27' E 000°10'0 0.0
2017-Aug-30 04:57N 49°27' E 000°10'0 0.0
2017-Aug-30 04:30N 49°27' E 000°10'0 0.0
2017-Aug-30 04:00N 49°27' E 000°10'0 0.0
2017-Aug-30 03:30N 49°27' E 000°10'0 0.0
2017-Aug-30 03:00N 49°27' E 000°10'0 0.0
2017-Aug-30 02:30N 49°27' E 000°10'  
Track history (hours):
 
Tides and Currents Weather Stations Pressure Air Temp Water Temp Dewpoint Dewpoint Depression Visibility Wind Speed Wind Dir Waves Ship Positions

CMA CGM St. Laurent

Last reported at 2017-Sep-09 02:23 UTC. Time now 2017-Sep-23 00:22 UTC.
Position N 16°07' W 061°31'.
Warning: this ship's position is 13 days out of date.

Length 190 m; draft 8.3 m.

Type: Ship. MMSI: 235111365.

Date/timePositionNaut miles runAvg speedWind from/ knotsBaromVisibWave heightAir tempDewpointWater temp
2017-Sep-09 02:23N 16°07' W 061°31'3 8.2
2017-Sep-09 02:01N 16°10' W 061°33'4 7.4
2017-Sep-09 01:30N 16°14' W 061°32'0 0.5
2017-Sep-09 00:59N 16°14' W 061°33'0 0.0
2017-Sep-09 00:29N 16°14' W 061°33'0 0.0
2017-Sep-08 23:59N 16°14' W 061°33'0 0.0
2017-Sep-08 23:29N 16°14' W 061°33'0 0.0
2017-Sep-08 22:59N 16°14' W 061°33'0 0.0
2017-Sep-08 22:29N 16°14' W 061°33'0 0.0
2017-Sep-08 21:59N 16°14' W 061°33'0 0.0
2017-Sep-08 21:29N 16°14' W 061°33'0 0.0
2017-Sep-08 20:59N 16°14' W 061°33'0 0.0
2017-Sep-08 20:29N 16°14' W 061°33'0 0.0
2017-Sep-08 19:59N 16°14' W 061°33'0 0.0
2017-Sep-08 19:29N 16°14' W 061°33'0 0.0
2017-Sep-08 18:59N 16°14' W 061°33'0 0.0
2017-Sep-08 18:29N 16°14' W 061°33'0 0.0
2017-Sep-08 17:59N 16°14' W 061°33'0 0.0
2017-Sep-08 17:30N 16°14' W 061°33'1 1.2
2017-Sep-08 17:00N 16°13' W 061°32'3 6.2
2017-Sep-08 16:30N 16°10' W 061°33'4 8.1
2017-Sep-08 16:01N 16°08' W 061°29'611.2
2017-Sep-08 15:30N 16°06' W 061°24'713.8
2017-Sep-08 15:00N 16°04' W 061°17'914.0
2017-Sep-08 14:23N 16°04' W 061°08'613.9
2017-Sep-08 13:58N 16°04' W 061°02'1214.3
2017-Sep-08 13:09N 16°04' W 060°50'  
2017-Sep-02 20:30N 36°10' W 026°09'918.1
2017-Sep-02 20:00N 36°14' W 025°60'918.1
2017-Sep-02 19:30N 36°18' W 025°50'918.1
2017-Sep-02 19:00N 36°23' W 025°40'918.2
2017-Sep-02 18:30N 36°27' W 025°30'918.2
2017-Sep-02 18:00N 36°32' W 025°20'918.3
2017-Sep-02 17:31N 36°36' W 025°11'918.2
2017-Sep-02 17:00N 36°41' W 025°01'918.2
2017-Sep-02 16:30N 36°46' W 024°51'918.0
2017-Sep-02 16:01N 36°51' W 024°43'918.1
2017-Sep-02 15:30N 36°57' W 024°34'918.5
2017-Sep-02 15:00N 37°03' W 024°25'918.4
2017-Sep-02 14:31N 37°09' W 024°16'917.9
2017-Sep-02 14:00N 37°15' W 024°08'917.9
2017-Sep-02 13:30N 37°21' W 023°59'917.8
2017-Sep-02 13:01N 37°27' W 023°51'917.6
2017-Sep-02 12:30N 37°32' W 023°42'917.5
2017-Sep-02 12:00N 37°38' W 023°34'917.5
2017-Sep-02 11:30N 37°44' W 023°25'1017.5
2017-Sep-02 10:57N 37°50' W 023°16'817.7
2017-Sep-02 10:30N 37°55' W 023°08'917.8
2017-Sep-02 10:00N 38°01' W 022°59'918.0
2017-Sep-02 09:30N 38°06' W 022°51'918.1
2017-Sep-02 09:00N 38°12' W 022°42'917.7
2017-Sep-02 08:30N 38°18' W 022°34'1217.8
2017-Sep-02 07:49N 38°26' W 022°22'617.8
2017-Sep-02 07:30N 38°29' W 022°16'917.8
2017-Sep-02 07:00N 38°35' W 022°08'917.6
2017-Sep-02 06:31N 38°41' W 021°59'1217.6
2017-Sep-02 05:51N 38°49' W 021°48'817.5
2017-Sep-02 05:24N 38°54' W 021°40'1017.6
2017-Sep-02 04:52N 38°60' W 021°31'617.4
2017-Sep-02 04:30N 39°04' W 021°24'817.3
2017-Sep-02 04:00N 39°09' W 021°16'917.5
2017-Sep-02 03:29N 39°15' W 021°07'817.6
2017-Sep-02 03:01N 39°21' W 020°59'2817.7
2017-Sep-02 01:27N 39°38' W 020°31'  
2017-Aug-30 20:06N 49°40' W 003°54'215.1
2017-Aug-30 19:59N 49°41' W 003°51'715.4
2017-Aug-30 19:31N 49°45' W 003°42'815.6
2017-Aug-30 19:01N 49°49' W 003°32'815.7
2017-Aug-30 18:31N 49°53' W 003°21'815.8
2017-Aug-30 18:00N 49°56' W 003°10'815.6
2017-Aug-30 17:31N 49°59' W 002°59'815.6
2017-Aug-30 17:01N 50°01' W 002°47'815.6
2017-Aug-30 16:30N 50°03' W 002°35'1914.8
2017-Aug-30 15:12N 50°04' W 002°05'314.6
2017-Aug-30 15:00N 50°03' W 002°01'714.4
2017-Aug-30 14:30N 50°01' W 001°50'714.0
2017-Aug-30 14:00N 49°57' W 001°41'714.0
2017-Aug-30 13:30N 49°54' W 001°31'713.4
2017-Aug-30 13:01N 49°52' W 001°22'713.1
2017-Aug-30 12:30N 49°49' W 001°12'713.7
2017-Aug-30 12:01N 49°46' W 001°02'714.2
2017-Aug-30 11:31N 49°44' W 000°52'814.9
2017-Aug-30 11:00N 49°41' W 000°41'1215.5
2017-Aug-30 10:13N 49°37' W 000°24'315.3
2017-Aug-30 10:00N 49°35' W 000°19'715.3
2017-Aug-30 09:31N 49°32' W 000°09'611.8
2017-Aug-30 09:00N 49°30' W 000°00'612.2
2017-Aug-30 08:31N 49°28' E 000°08'2 3.0
2017-Aug-30 08:00N 49°27' E 000°10'0 0.0
2017-Aug-30 07:30N 49°27' E 000°10'0 0.0
2017-Aug-30 07:00N 49°27' E 000°10'0 0.0
2017-Aug-30 06:30N 49°27' E 000°10'0 0.0
2017-Aug-30 06:00N 49°27' E 000°10'0 0.0
2017-Aug-30 05:30N 49°27' E 000°10'0 0.0
2017-Aug-30 04:57N 49°27' E 000°10'0 0.0
2017-Aug-30 04:30N 49°27' E 000°10'0 0.0
2017-Aug-30 04:00N 49°27' E 000°10'0 0.0
2017-Aug-30 03:30N 49°27' E 000°10'0 0.0
2017-Aug-30 03:00N 49°27' E 000°10'0 0.0
2017-Aug-30 02:30N 49°27' E 000°10'  

Dump ship's entire track history